• Join FlightAware (Why Join?)
  • Login
  • US Flag 
11:06AM EDT


 

Airport Tracker/Info


-or-


 

Live Flight TrackerFlight Track Log ✈ AAL832 ✈ 27-Apr-2013 ✈ KORD - KMIA

Flight Track Log - Related Links

Times and Time Zones

All times are in EDT time to prevent confusion due to time zone crossing. See the AAL832 flight status page for this flight to view local times or setup timezone preferences in your user account.

Time Position Orientation Groundspeed Altitude Reporting Facility
EDT Latitude Longitude Course Direction KTS MPH feet Rate Location/Type
06:02PM 41.9167 -87.9167 180° South 164 189 2,800  Level Chicago TRACON
06:02PM 41.8667 -87.9167 180° South 225 259 4,700 2,400 Climbing Chicago TRACON
06:03PM 41.7710 -87.7835 180° South  Level Estimated
06:04PM 41.6657 -87.7222 180° South  Level Estimated
06:04PM 41.8078 -87.9072 173° South 242 278 7,700  Level Chicago Center
06:05PM 41.5603 -87.6611 176° South  Level Estimated
06:05PM 41.7325 -87.9006 176° South 270 311 11,000  Level Chicago Center
06:06PM 41.4549 -87.6002 189° South  Level Estimated
06:06PM 41.6369 -87.8950 178° South 286 329 15,000  Level Chicago Center
06:07PM 41.3469 -87.5380 180° South  Level Estimated
06:07PM 41.5519 -87.8900 177° South 303 349 17,800  Level Chicago Center
06:08PM 41.4628 -87.8806 175° South 316 364 20,400 1,800 Climbing Chicago Center
06:09PM 41.3611 -87.8808 180° South 362 417 21,600 1,560 Climbing Chicago Center
06:10PM 41.2492 -87.8942 185° South 397 457 23,700 2,340 Climbing Chicago Center
06:11PM 41.1369 -87.8900 178° South 401 461 26,400 2,280 Climbing Chicago Center
06:12PM 41.0242 -87.8853 178° South 404 465 28,500 1,200 Climbing Chicago Center
06:13PM 40.9106 -87.8803 178° South 409 471 29,000 240 Climbing Chicago Center
06:14PM 40.7747 -87.8414 168° South 418 481 29,000  Level Chicago Center
06:15PM 40.6564 -87.8097 169° South 432 497 29,000  Level Chicago Center
06:16PM 40.5372 -87.7764 168° South 439 505 29,000 240 Level Chicago Center
06:17PM 40.4181 -87.7447 169° South 439 505 29,500 1,080 Climbing Chicago Center
06:18PM 40.3250 -87.7239 170° South 439 505 31,000 1,920 Climbing Indianapolis Center
06:19PM 40.2083 -87.6911 168° South 432 497 32,900 960 Climbing Indianapolis Center
06:20PM 40.0931 -87.6622 169° South 420 483 33,000  Climbing Indianapolis Center
06:21PM 39.9767 -87.6303 168° South 425 489 33,000  Level Indianapolis Center
06:22PM 39.8389 -87.5956 169° South 430 495 33,000  Level Indianapolis Center
06:23PM 39.7219 -87.5653 169° South 427 491 33,000  Level Indianapolis Center
06:24PM 39.6072 -87.5353 169° South 422 486 33,000  Level Indianapolis Center
06:25PM 39.4900 -87.5053 169° South 426 490 33,000  Level Indianapolis Center
06:26PM 39.3739 -87.4744 168° South 424 488 33,000  Level Indianapolis Center
06:27PM 39.2575 -87.4456 169° South 425 489 33,000  Level Indianapolis Center
06:28PM 39.1400 -87.4161 169° South 427 491 33,000  Level Indianapolis Center
06:29PM 39.0192 -87.3844 168° South 428 493 33,000  Level Indianapolis Center
06:30PM 38.9025 -87.3547 169° South 426 490 33,000  Level Indianapolis Center
06:31PM 38.7850 -87.3267 169° South 428 493 33,000  Level Indianapolis Center
06:32PM 38.6675 -87.2956 168° South 430 495 33,000  Level Indianapolis Center
06:33PM 38.5261 -87.2606 169° South 431 496 33,000  Level Indianapolis Center
06:34PM 38.4089 -87.2311 169° South 431 496 33,000  Level Indianapolis Center
06:35PM 38.2961 -87.2050 170° South 430 495 33,000  Level Indianapolis Center
06:36PM 38.1778 -87.1739 168° South 433 498 33,000  Level Indianapolis Center
06:37PM 38.0617 -87.1447 169° South 429 494 33,000  Level Indianapolis Center
06:38PM 37.9444 -87.1153 169° South 430 495 33,000 780 Level Indianapolis Center
06:39PM 37.8075 -87.0492 159° South 441 507 34,600 1,440 Climbing Indianapolis Center
06:40PM 37.6953 -86.9914 158° South 436 502 36,000 1,140 Climbing Indianapolis Center
06:41PM 37.5856 -86.9275 155° Southeast 433 498 37,000 660 Climbing Indianapolis Center
06:42PM 37.5442 -86.9019 154° Southeast 442 509 37,000  Level Memphis Center
06:42PM 37.4731 -86.8542 152° Southeast 437 503 37,000  Level Indianapolis Center
06:43PM 37.3647 -86.7825 152° Southeast 434 499 37,000  Level Indianapolis Center
06:44PM 37.3317 -86.7572 149° Southeast 437 503 37,000  Level Memphis Center
06:45PM 37.2106 -86.6794 153° Southeast 437 503 37,000  Level Memphis Center
06:46PM 37.1044 -86.6089 152° Southeast 437 503 37,000  Level Memphis Center
06:47PM 36.9958 -86.5361 152° Southeast 437 503 37,000  Level Memphis Center
06:48PM 36.8894 -86.4661 152° Southeast 437 503 37,000  Level Memphis Center
06:49PM 36.7789 -86.3961 153° Southeast 437 503 37,000  Level Memphis Center
06:50PM 36.6683 -86.3242 152° Southeast 443 510 37,000  Level Memphis Center
06:51PM 36.5575 -86.2519 152° Southeast 443 510 37,000  Level Memphis Center
06:52PM 36.4575 -86.1875 153° Southeast 443 510 37,000  Level Memphis Center
06:53PM 36.3467 -86.1158 152° Southeast 443 510 37,000  Level Memphis Center
06:54PM 36.2358 -86.0444 153° Southeast 443 510 37,000  Level Memphis Center
06:55PM 36.1247 -85.9733 153° Southeast 443 510 37,000  Level Memphis Center
06:56PM 36.0011 -85.8978 154° Southeast 443 510 37,000  Level Memphis Center
06:58PM 35.7419 -85.7350 153° Southeast 448 516 37,000  Level Atlanta Center
06:59PM 35.6325 -85.6639 152° Southeast 448 516 37,000  Level Atlanta Center
07:00PM 35.5206 -85.5953 153° Southeast 448 516 37,000  Level Atlanta Center
07:01PM 35.4172 -85.5322 154° Southeast 448 516 37,000  Level Atlanta Center
07:02PM 35.3075 -85.4589 151° Southeast 448 516 37,000  Level Atlanta Center
07:03PM 35.1956 -85.3908 154° Southeast 448 516 37,000  Level Atlanta Center
07:04PM 35.0836 -85.3206 153° Southeast 448 516 37,000  Level Atlanta Center
07:05PM 34.9717 -85.2503 153° Southeast 448 516 37,000  Level Atlanta Center
07:06PM 34.8556 -85.1803 154° Southeast 448 516 37,000  Level Atlanta Center
07:07PM 34.7433 -85.1106 153° Southeast 448 516 37,000  Level Atlanta Center
07:08PM 34.6208 -85.0333 153° Southeast 448 516 37,000  Level Atlanta Center
07:09PM 34.5086 -84.9664 154° Southeast 443 510 37,000  Level Atlanta Center
07:10PM 34.3944 -84.8972 153° Southeast 452 520 37,000  Level Atlanta Center
07:11PM 34.2800 -84.8281 153° Southeast 452 520 37,000  Level Atlanta Center
07:12PM 34.1678 -84.7594 153° Southeast 457 526 37,000  Level Atlanta Center
07:13PM 34.0617 -84.6983 154° Southeast 466 536 37,000  Level Atlanta Center
07:14PM 33.9472 -84.6297 154° Southeast 466 536 37,000  Level Atlanta Center
07:15PM 33.8328 -84.5614 154° Southeast 461 531 37,000  Level Atlanta Center
07:16PM 33.7203 -84.4908 152° Southeast 461 531 37,000  Level Atlanta Center
07:17PM 33.5869 -84.4203 156° South 461 531 37,000  Level Atlanta Center
07:18PM 33.4661 -84.3700 161° South 461 531 37,000  Level Atlanta Center
07:19PM 33.3453 -84.3197 161° South 461 531 37,000  Level Atlanta Center
07:20PM 33.2222 -84.2672 160° South 467 537 37,000  Level Atlanta Center
07:21PM 33.1033 -84.2175 161° South 461 531 37,000  Level Atlanta Center
07:22PM 32.9969 -84.1725 160° South 461 531 37,000  Level Atlanta Center
07:23PM 32.8736 -84.1228 161° South 461 531 37,000  Level Atlanta Center
07:24PM 32.7506 -84.0733 161° South 461 531 37,000  Level Atlanta Center
07:25PM 32.6275 -84.0242 161° South 461 531 37,000  Level Atlanta Center
07:26PM 32.5064 -83.9697 159° South 461 531 37,000  Level Atlanta Center
07:27PM 32.3811 -83.9208 162° South 461 531 37,000  Level Atlanta Center
07:28PM 32.2600 -83.8719 161° South 461 531 37,000  Level Atlanta Center
07:30PM 32.0444 -83.7822 161° South 484 557 37,000  Level Jacksonville Center
07:31PM 31.9217 -83.7322 161° South 484 557 37,000  Level Jacksonville Center
07:32PM 31.7986 -83.6822 161° South 479 551 37,000  Level Jacksonville Center
07:33PM 31.6758 -83.6297 160° South 474 545 37,000  Level Jacksonville Center
07:34PM 31.5361 -83.5775 162° South 480 552 37,000  Level Jacksonville Center
07:35PM 31.4133 -83.5303 162° South 473 544 37,000  Level Jacksonville Center
07:36PM 31.2925 -83.4808 161° South 468 539 37,000  Level Jacksonville Center
07:37PM 31.1694 -83.4342 162° South 463 533 37,000  Level Jacksonville Center
07:38PM 31.0506 -83.3872 161° South 458 527 37,000  Level Jacksonville Center
07:39PM 30.9275 -83.3383 161° South 458 527 37,000  Level Jacksonville Center
07:40PM 30.8297 -83.2989 161° South 463 533 37,000  Level Jacksonville Center
07:41PM 30.7025 -83.2406 158° South 457 526 37,000  Level Jacksonville Center
07:42PM 30.5836 -83.1797 156° South 463 533 37,000  Level Jacksonville Center
07:43PM 30.4667 -83.1217 157° South 463 533 37,000  Level Jacksonville Center
07:44PM 30.3500 -83.0611 156° South 463 533 37,000  Level Jacksonville Center
07:45PM 30.2331 -83.0031 157° South 456 525 37,000  Level Jacksonville Center
07:46PM 30.1142 -82.9431 156° South 456 525 37,000  Level Jacksonville Center
07:47PM 29.9825 -82.8831 158° South 456 525 37,000  Level Jacksonville Center
07:48PM 29.8636 -82.8231 156° South 462 532 37,000  Level Jacksonville Center
07:49PM 29.7444 -82.7658 157° South 462 532 37,000  Level Jacksonville Center
07:50PM 29.6275 -82.7086 157° South 457 526 37,000  Level Jacksonville Center
07:51PM 29.5106 -82.6492 156° South 457 526 37,000  Level Jacksonville Center
07:52PM 29.3894 -82.5875 156° South 457 526 37,000  Level Jacksonville Center
07:53PM 29.2722 -82.5308 157° South 457 526 37,000  Level Jacksonville Center
07:54PM 29.1531 -82.4717 157° South 457 526 37,000  Level Jacksonville Center
07:55PM 29.0300 -82.4556 173° South 442 509 37,000  Level Jacksonville Center
07:56PM 28.9089 -82.4917 195° South 434 499 37,000  Level Jacksonville Center
07:57PM 28.7922 -82.5231 193° South 440 506 37,000  Level Jacksonville Center
07:58PM 28.6711 -82.5589 195° South 450 518 37,000  Level Jacksonville Center
07:59PM 28.5503 -82.5878 192° South 450 518 37,000  Level Jacksonville Center
08:00PM 28.4231 -82.5858 179° South 455 524 37,000  Level Jacksonville Center
08:02PM 28.1303 -82.5253 170° South 464 534 37,000  Level Miami Center
08:03PM 28.0061 -82.5025 171° South 464 534 37,000  Level Miami Center
08:04PM 27.8842 -82.4778 170° South 458 527 37,000  Level Miami Center
08:05PM 27.7436 -82.4425 167° South 460 529 37,000  Level Miami Center
08:06PM 27.6417 -82.3789 151° Southeast 460 529 37,000  Level Miami Center
08:07PM 27.5319 -82.3036 149° Southeast 460 529 37,000  Level Miami Center
08:08PM 27.4139 -82.2183 147° Southeast 461 531 37,000 -720 Level Miami Center
08:09PM 27.3022 -82.1408 148° Southeast 466 536 35,600 -1,560 Descending Miami Center
08:10PM 27.2025 -82.0708 148° Southeast 472 543 33,900 -1,740 Descending Miami Center
08:11PM 27.0903 -81.9936 149° Southeast 472 543 32,200 -1,860 Descending Miami Center
08:12PM 26.9761 -81.9208 150° Southeast 478 550 30,200 -1,860 Descending Miami Center
08:13PM 26.8619 -81.8392 147° Southeast 478 550 28,500 -1,680 Descending Miami Center
08:14PM 26.7497 -81.7625 149° Southeast 478 550 26,900 -1,680 Descending Miami Center
08:15PM 26.6378 -81.6811 147° Southeast 478 550 25,200 -1,500 Descending Miami Center
08:16PM 26.5314 -81.6094 149° Southeast 466 536 24,000 -780 Descending Miami Center
08:17PM 26.4172 -81.5306 148° Southeast 460 529 23,700 -1,320 Descending Miami Center
08:18PM 26.3231 -81.4644 148° Southeast 434 499 21,400 -2,220 Descending Miami Center
08:19PM 26.2269 -81.4003 149° Southeast 414 476 19,300 -2,100 Descending Miami Center
08:20PM 26.1369 -81.3392 149° Southeast 396 456 17,300 -2,100 Descending Miami Center
08:21PM 26.0536 -81.2714 144° Southeast 384 442 15,100 -2,400 Descending Miami Center
08:22PM 26.0019 -81.1747 121° Southeast 363 418 12,500 -2,460 Descending Miami Center
08:23PM 25.9603 -81.1061 124° Southeast 365 420 10,800 -1,680 Descending Miami Center
08:24PM 25.9186 -81.0283 121° Southeast 342 394 9,900 -660 Descending Miami Center
08:24PM 25.9050 -80.9956 115° Southeast 344 396 10,000  Climbing Miami Center
08:25PM 25.8850 -80.9628 124° Southeast 273 314 9,900 -900 Descending Miami Center
08:25PM 25.8672 -80.9228 116° Southeast 307 353 9,100 -1,620 Descending Miami Center
08:26PM 25.8300 -80.9078 160° South 280 322 8,300 -1,500 Descending Miami Center
08:26PM 25.7953 -80.8858 150° Southeast 269 310 7,600 -1,440 Descending Miami Center
08:27PM 25.7625 -80.8594 144° Southeast 283 326 6,700 -1,440 Descending Miami Center
08:27PM 25.7636 -80.8178 88° East 246 283 6,200 -1,500 Descending Miami Center
08:28PM 25.7628 -80.7739 91° East 261 300 5,200 -1,500 Descending Miami Center
08:28PM 25.7678 -80.7394 81° East 231 266 4,700 -1,320 Descending Miami Center
08:29PM 25.7669 -80.6933 91° East 259 298 3,900 -720 Descending Miami Center
08:29PM 25.7719 -80.6614 80° East 237 273 4,000 60 Climbing Miami Center
08:30PM 25.7708 -80.6219 92° East 213 245 4,000  Level Miami Center
08:30PM 25.7758 -80.5944 79° East 231 266 4,000  Level Miami Center
08:31PM 25.7744 -80.5644 93° East 192 221 4,000  Level Miami Center
08:31PM 25.7772 -80.5369 84° East 214 246 4,000 -540 Level Miami Center
08:32PM 25.7778 -80.5092 89° East 182 209 3,500 -720 Descending Miami Center
08:32PM 25.7806 -80.4861 82° East 192 221 3,300 -1,020 Descending Miami Center
08:33PM 25.7792 -80.4539 93° East 175 201 2,500 -1,140 Descending Miami Center
08:34PM 25.7806 -80.4008 88° East 171 197 1,600 -900 Descending Miami Center